Time;durP1;ratioP1;P1;durP2;ratioP2;P2;SDS_P1;SDS_P2;PMS_P1;PMS_P2;Temp;Humidity;BMP_temperature;BMP_pressure;BME280_temperature;BME280_humidity;BME280_pressure;Samples;Min_cycle;Max_cycle;Signal;HPM_P1;HPM_P2
2021/12/30 00:01:13;;;;;;;53.00;28.30;;;;;;;-3.50;75.72;99669.47;1714317;82;20919;-49
2021/12/30 00:03:40;;;;;;;60.20;29.33;;;;;;;-3.50;75.75;99673.41;1710600;82;21768;-51
2021/12/30 00:06:06;;;;;;;57.23;28.43;;;;;;;-3.50;75.77;99664.20;1712467;82;22493;-51
2021/12/30 00:08:33;;;;;;;61.13;28.97;;;;;;;-3.51;75.85;99665.95;1721401;82;21617;-51
2021/12/30 00:10:59;;;;;;;57.60;29.23;;;;;;;-3.50;75.90;99670.34;1724413;82;21471;-51
2021/12/30 00:13:27;;;;;;;63.97;29.30;;;;;;;-3.50;75.94;99672.98;1721241;82;21144;-50
2021/12/30 00:15:54;;;;;;;59.83;29.90;;;;;;;-3.47;75.98;99678.67;1727617;82;21140;-49
2021/12/30 00:18:20;;;;;;;54.97;27.77;;;;;;;-3.48;76.04;99683.05;1727742;82;21089;-49
2021/12/30 00:20:47;;;;;;;64.03;29.27;;;;;;;-3.47;76.10;99683.50;1721274;82;21124;-49
2021/12/30 00:23:13;;;;;;;66.13;30.57;;;;;;;-3.47;76.10;99683.50;1723026;82;21135;-50
2021/12/30 00:25:44;;;;;;;66.67;29.27;;;;;;;-3.46;76.14;99681.32;1724638;82;21120;-49
2021/12/30 00:28:17;;;;;;;59.07;31.47;;;;;;;-3.45;76.18;99685.72;1723634;82;21169;-51
2021/12/30 00:30:45;;;;;;;60.53;29.67;;;;;;;-3.46;76.09;99685.70;1726816;82;20977;-50
2021/12/30 00:33:11;;;;;;;67.87;31.67;;;;;;;-3.47;76.13;99689.20;1727152;82;20986;-50
2021/12/30 00:35:39;;;;;;;70.83;30.67;;;;;;;-3.46;76.20;99688.33;1721947;82;21499;-48
2021/12/30 00:38:06;;;;;;;61.50;31.30;;;;;;;-3.45;76.25;99692.73;1721233;82;22462;-50
2021/12/30 00:40:33;;;;;;;61.07;29.93;;;;;;;-3.45;76.33;99690.98;1726886;82;21150;-50
2021/12/30 00:42:59;;;;;;;59.53;27.83;;;;;;;-3.41;76.32;99683.12;1725214;82;21256;-48
2021/12/30 00:45:30;;;;;;;60.43;28.67;;;;;;;-3.42;76.24;99681.35;1731644;82;21783;-49
2021/12/30 00:47:56;;;;;;;62.47;28.93;;;;;;;-3.42;76.30;99682.23;1724932;82;21450;-48
2021/12/30 00:50:23;;;;;;;57.87;26.97;;;;;;;-3.42;76.23;99683.98;1723520;82;21136;-49
2021/12/30 00:52:51;;;;;;;64.47;29.13;;;;;;;-3.45;76.21;99679.57;1723370;82;20943;-50
2021/12/30 00:55:17;;;;;;;64.63;29.63;;;;;;;-3.47;76.24;99672.09;1726586;82;22714;-49
2021/12/30 00:57:43;;;;;;;65.50;29.60;;;;;;;-3.49;76.24;99677.80;1722965;82;21576;-49
2021/12/30 01:00:14;;;;;;;63.20;27.97;;;;;;;-3.49;76.33;99664.65;1722713;82;21037;-50
2021/12/30 01:02:40;;;;;;;64.80;28.90;;;;;;;-3.48;76.40;99666.37;1730123;82;21001;-51
2021/12/30 01:05:08;;;;;;;61.03;30.27;;;;;;;-3.46;76.44;99669.91;1726357;82;21426;-51
2021/12/30 01:07:36;;;;;;;65.87;28.07;;;;;;;-3.45;76.41;99674.30;1720675;82;21265;-49
2021/12/30 01:10:05;;;;;;;59.30;28.53;;;;;;;-3.46;76.41;99665.97;1665683;83;21425;-50
2021/12/30 01:12:32;;;;;;;64.67;28.87;;;;;;;-3.46;76.37;99668.59;1721396;82;21582;-50
2021/12/30 01:15:00;;;;;;;66.70;30.97;;;;;;;-3.46;76.41;99674.74;1727917;82;21045;-49
2021/12/30 01:17:41;;;;;;;58.93;27.00;;;;;;;-3.46;76.42;99673.42;1724800;82;21077;-50
2021/12/30 01:22:26;;;;;;;66.70;28.13;;;;;;;-3.42;76.48;99670.39;1790182;78;26801;-50
2021/12/30 01:24:53;;;;;;;65.27;29.13;;;;;;;-3.45;76.56;99676.94;1764845;80;21064;-50
2021/12/30 01:27:20;;;;;;;70.10;29.00;;;;;;;-3.43;76.46;99673.89;1764456;80;21152;-52
2021/12/30 01:29:47;;;;;;;63.97;29.33;;;;;;;-3.42;76.50;99674.77;1771727;80;21084;-50
2021/12/30 01:32:14;;;;;;;67.33;28.90;;;;;;;-3.40;76.48;99675.20;1771563;80;21108;-50
2021/12/30 01:34:40;;;;;;;66.87;30.00;;;;;;;-3.39;76.50;99682.66;1765162;80;21059;-53
2021/12/30 01:37:07;;;;;;;61.53;29.27;;;;;;;-3.40;76.51;99674.36;1766497;80;21094;-51
2021/12/30 01:39:37;;;;;;;69.43;32.00;;;;;;;-3.40;76.49;99671.72;1765964;80;23182;-49
2021/12/30 01:42:06;;;;;;;76.20;31.73;;;;;;;-3.39;76.56;99679.59;1769163;80;20928;-50
2021/12/30 01:44:33;;;;;;;67.50;31.83;;;;;;;-3.38;76.53;99672.59;1762980;80;20962;-52
2021/12/30 01:47:01;;;;;;;64.47;30.67;;;;;;;-3.38;76.50;99673.47;1765882;80;21433;-50
2021/12/30 01:49:27;;;;;;;62.00;30.83;;;;;;;-3.38;76.50;99676.53;1760592;80;21078;-51
2021/12/30 01:51:54;;;;;;;64.67;30.53;;;;;;;-3.39;76.48;99667.76;1764539;80;21144;-50
2021/12/30 01:54:22;;;;;;;62.27;28.23;;;;;;;-3.40;76.47;99669.94;1762302;80;21073;-51
2021/12/30 01:56:51;;;;;;;63.33;29.87;;;;;;;-3.38;76.47;99671.27;1758473;79;21076;-53
2021/12/30 01:59:21;;;;;;;60.03;26.70;;;;;;;-3.39;76.50;99667.76;1740299;80;21013;-51
2021/12/30 02:01:53;;;;;;;64.20;28.63;;;;;;;-3.39;76.47;99675.66;1741835;80;21012;-53
2021/12/30 02:04:18;;;;;;;60.07;27.00;;;;;;;-3.39;76.46;99683.55;1738427;80;21091;-52
2021/12/30 02:06:44;;;;;;;59.77;28.87;;;;;;;-3.39;76.42;99690.13;1746004;80;21112;-50
2021/12/30 02:09:11;;;;;;;64.00;30.43;;;;;;;-3.39;76.44;99697.14;1739350;80;21270;-52
2021/12/30 02:11:38;;;;;;;59.60;27.00;;;;;;;-3.38;76.51;99693.64;1743623;80;20950;-50
2021/12/30 02:14:04;;;;;;;53.40;27.37;;;;;;;-3.37;76.44;99703.30;1742997;80;20989;-50
2021/12/30 02:16:32;;;;;;;56.07;25.90;;;;;;;-3.37;76.44;99704.19;1744937;80;21132;-50
2021/12/30 02:19:00;;;;;;;60.97;27.13;;;;;;;-3.37;76.40;99703.30;1740514;80;21089;-52
2021/12/30 02:21:27;;;;;;;59.13;29.13;;;;;;;-3.40;76.32;99709.42;1732996;80;21021;-52
2021/12/30 02:23:53;;;;;;;65.23;28.93;;;;;;;-3.39;76.37;99706.35;1681756;83;21057;-52
2021/12/30 02:26:19;;;;;;;62.17;28.60;;;;;;;-3.40;76.37;99702.84;1732356;80;21046;-52
2021/12/30 02:28:46;;;;;;;56.90;27.27;;;;;;;-3.39;76.42;99701.09;1726623;80;21808;-52
2021/12/30 02:31:19;;;;;;;58.27;26.80;;;;;;;-3.39;76.41;99695.39;1728747;81;21657;-52
2021/12/30 02:33:45;;;;;;;60.30;28.43;;;;;;;-3.37;76.43;99698.04;1697226;82;20983;-52
2021/12/30 02:36:13;;;;;;;58.20;26.10;;;;;;;-3.35;76.40;99698.94;1728564;80;20896;-52
2021/12/30 02:38:45;;;;;;;54.13;27.50;;;;;;;-3.35;76.29;99702.45;1695670;82;21495;-52
2021/12/30 02:41:08;;;;;;;61.67;28.67;;;;;;;-3.33;76.30;99713.00;1732093;80;22700;-52
2021/12/30 02:43:34;;;;;;;66.33;29.40;;;;;;;-3.33;76.25;99709.05;1733589;80;20899;-52
2021/12/30 02:46:01;;;;;;;59.97;28.83;;;;;;;-3.34;76.30;99709.91;1729360;80;20925;-52
2021/12/30 02:48:30;;;;;;;55.53;27.43;;;;;;;-3.33;76.30;99711.25;1697961;82;22108;-52
2021/12/30 02:50:59;;;;;;;60.73;26.93;;;;;;;-3.33;76.26;99713.88;1694835;82;21701;-52
2021/12/30 02:53:25;;;;;;;54.93;26.97;;;;;;;-3.33;76.31;99706.42;1731663;80;21094;-52
2021/12/30 02:55:53;;;;;;;56.30;28.30;;;;;;;-3.35;76.33;99705.52;1730998;80;21569;-52
2021/12/30 02:58:22;;;;;;;53.43;26.90;;;;;;;-3.33;76.37;99706.42;1730523;80;20912;-51
2021/12/30 03:00:50;;;;;;;61.43;27.37;;;;;;;-3.33;76.34;99705.98;1728012;80;21368;-52
2021/12/30 03:03:18;;;;;;;54.60;27.23;;;;;;;-3.33;76.34;99711.25;1687102;82;21499;-52
2021/12/30 03:05:46;;;;;;;58.07;28.00;;;;;;;-3.32;76.31;99718.28;1727311;80;22832;-52
2021/12/30 03:08:12;;;;;;;55.10;27.90;;;;;;;-3.32;76.26;99723.54;1728098;80;20879;-52
2021/12/30 03:10:39;;;;;;;59.20;26.37;;;;;;;-3.32;76.33;99726.17;1727520;81;20966;-52
2021/12/30 03:13:08;;;;;;;58.90;27.70;;;;;;;-3.29;76.33;99735.81;1723383;80;21050;-52
2021/12/30 03:15:35;;;;;;;56.40;27.53;;;;;;;-3.29;76.29;99732.75;1729937;80;20985;-52
2021/12/30 03:18:04;;;;;;;61.23;29.73;;;;;;;-3.28;76.24;99737.58;1731178;80;20891;-52
2021/12/30 03:20:33;;;;;;;65.97;27.00;;;;;;;-3.29;76.26;99745.03;1731830;81;20923;-52
2021/12/30 03:22:59;;;;;;;67.67;28.70;;;;;;;-3.28;76.29;99756.01;1735188;80;21299;-52
2021/12/30 03:25:26;;;;;;;64.87;28.77;;;;;;;-3.27;76.30;99756.03;1733058;80;22464;-52
2021/12/30 03:27:52;;;;;;;60.30;28.97;;;;;;;-3.24;76.33;99755.17;1739232;80;21077;-52
2021/12/30 03:30:18;;;;;;;57.40;29.37;;;;;;;-3.24;76.17;99757.37;1734236;80;21149;-52
2021/12/30 03:32:44;;;;;;;69.73;28.77;;;;;;;-3.23;76.19;99756.94;1734382;80;21108;-52
2021/12/30 03:35:11;;;;;;;66.30;28.37;;;;;;;-3.22;76.16;99766.14;1675334;83;21138;-52
2021/12/30 03:37:37;;;;;;;62.10;27.10;;;;;;;-3.23;76.12;99764.84;1733877;81;21048;-52
2021/12/30 03:40:07;;;;;;;56.77;26.67;;;;;;;-3.24;76.15;99770.54;1697954;82;21172;-52
2021/12/30 03:42:34;;;;;;;58.33;28.03;;;;;;;-3.23;76.22;99767.47;1734172;80;21125;-52
2021/12/30 03:45:02;;;;;;;59.70;28.87;;;;;;;-3.22;76.14;99763.94;1734088;80;21057;-52
2021/12/30 03:47:29;;;;;;;54.93;25.43;;;;;;;-3.23;76.09;99763.52;1736981;80;21005;-52
2021/12/30 03:49:55;;;;;;;55.60;28.80;;;;;;;-3.23;76.08;99759.58;1736383;80;21143;-52
2021/12/30 03:52:30;;;;;;;57.60;25.67;;;;;;;-3.25;76.08;99758.67;1734528;80;21081;-52
2021/12/30 03:54:53;;;;;;;54.87;26.27;;;;;;;-3.27;76.09;99767.88;1736898;80;21642;-52
2021/12/30 03:57:19;;;;;;;57.13;26.93;;;;;;;-3.26;76.10;99772.70;1735802;80;21068;-52
2021/12/30 03:59:45;;;;;;;53.40;25.80;;;;;;;-3.25;76.15;99769.20;1736361;80;21188;-52
2021/12/30 04:02:12;;;;;;;59.87;25.67;;;;;;;-3.26;76.18;99777.53;1698887;82;21058;-52
2021/12/30 04:04:38;;;;;;;58.70;27.40;;;;;;;-3.25;76.16;99780.62;1740795;80;21107;-52
2021/12/30 04:07:04;;;;;;;54.33;24.90;;;;;;;-3.24;76.30;99781.50;1737191;80;21794;-52
2021/12/30 04:09:31;;;;;;;57.50;27.67;;;;;;;-3.21;76.21;99789.40;1699455;82;21378;-52
2021/12/30 04:11:58;;;;;;;65.03;28.97;;;;;;;-3.21;76.27;99792.91;1739421;80;20902;-52
2021/12/30 04:14:26;;;;;;;64.80;28.57;;;;;;;-3.19;76.41;99792.94;1740154;80;21129;-52
2021/12/30 04:16:53;;;;;;;63.93;28.30;;;;;;;-3.20;76.35;99788.53;1734016;80;22225;-52
2021/12/30 04:19:20;;;;;;;69.17;27.97;;;;;;;-3.20;76.41;99789.85;1704238;82;21457;-52
2021/12/30 04:21:46;;;;;;;70.00;28.77;;;;;;;-3.22;76.47;99792.47;1733528;80;21585;-52
2021/12/30 04:24:12;;;;;;;70.67;29.67;;;;;;;-3.21;76.48;99792.03;1696067;82;22564;-52
2021/12/30 04:26:39;;;;;;;68.50;29.70;;;;;;;-3.24;76.56;99793.34;1727743;80;21073;-52
2021/12/30 04:29:05;;;;;;;74.40;31.47;;;;;;;-3.25;76.60;99800.36;1728928;80;21096;-52
2021/12/30 04:31:32;;;;;;;72.03;28.70;;;;;;;-3.23;76.76;99797.75;1734284;80;21146;-52
2021/12/30 04:33:59;;;;;;;72.17;30.23;;;;;;;-3.19;76.83;99801.72;1724849;81;21117;-52
2021/12/30 04:36:25;;;;;;;77.00;31.30;;;;;;;-3.18;76.78;99811.81;1726364;81;21104;-52
2021/12/30 04:38:52;;;;;;;74.43;31.33;;;;;;;-3.19;76.90;99808.30;1727509;80;21172;-52
2021/12/30 04:41:18;;;;;;;75.77;30.63;;;;;;;-3.19;76.79;99803.47;1729817;80;21057;-52
2021/12/30 04:43:46;;;;;;;70.30;29.77;;;;;;;-3.20;76.82;99809.16;1727512;80;21120;-52
2021/12/30 04:46:13;;;;;;;77.50;29.57;;;;;;;-3.22;76.91;99812.21;1725655;80;21647;-52
2021/12/30 04:48:39;;;;;;;66.17;28.23;;;;;;;-3.22;76.94;99822.73;1696076;82;21618;-52
2021/12/30 04:51:06;;;;;;;59.43;26.33;;;;;;;-3.23;76.94;99825.39;1731103;80;21559;-52
2021/12/30 04:53:33;;;;;;;68.17;29.40;;;;;;;-3.23;77.05;99820.97;1725195;81;21128;-52
2021/12/30 04:55:59;;;;;;;61.73;27.33;;;;;;;-3.21;77.04;99827.14;1729235;81;21120;-52
2021/12/30 04:58:25;;;;;;;66.40;27.80;;;;;;;-3.22;77.02;99828.00;1729710;80;20958;-52
2021/12/30 05:00:51;;;;;;;60.50;25.53;;;;;;;-3.23;77.07;99830.19;1730940;80;21010;-52
2021/12/30 05:03:21;;;;;;;57.57;25.73;;;;;;;-3.24;77.11;99832.84;1727346;81;21038;-52
2021/12/30 05:05:50;;;;;;;59.13;26.47;;;;;;;-3.24;77.14;99835.03;1725252;81;21086;-52
2021/12/30 05:08:23;;;;;;;61.77;26.67;;;;;;;-3.24;77.14;99836.35;1731676;80;21046;-52
2021/12/30 05:10:50;;;;;;;61.33;28.00;;;;;;;-3.25;77.16;99835.02;1728232;80;21641;-52
2021/12/30 05:13:17;;;;;;;70.90;30.80;;;;;;;-3.25;77.28;99837.65;1698256;82;20902;-52
2021/12/30 05:15:46;;;;;;;56.47;24.67;;;;;;;-3.21;77.22;99843.37;1732355;80;21515;-52
2021/12/30 05:18:14;;;;;;;62.47;27.20;;;;;;;-3.23;77.22;99840.72;1696131;82;20973;-52
2021/12/30 05:20:40;;;;;;;59.53;28.07;;;;;;;-3.25;77.24;99841.16;1731562;80;21119;-52
2021/12/30 05:23:08;;;;;;;59.37;26.53;;;;;;;-3.24;77.36;99831.52;1735486;81;20867;-52
2021/12/30 05:25:35;;;;;;;63.23;25.30;;;;;;;-3.24;77.35;99828.89;1740160;80;20886;-52
2021/12/30 05:28:03;;;;;;;58.73;26.00;;;;;;;-3.26;77.38;99835.45;1705282;82;20995;-52
2021/12/30 05:30:29;;;;;;;62.17;26.40;;;;;;;-3.26;77.40;99838.08;1739571;80;20950;-52
2021/12/30 05:32:56;;;;;;;69.80;27.33;;;;;;;-3.26;77.46;99842.46;1738377;80;21550;-52
2021/12/30 05:35:23;;;;;;;56.57;25.13;;;;;;;-3.26;77.49;99841.15;1742832;80;20875;-52
2021/12/30 05:37:49;;;;;;;55.40;24.67;;;;;;;-3.26;77.54;99836.77;1740165;80;20918;-52
2021/12/30 05:40:19;;;;;;;70.57;27.10;;;;;;;-3.25;77.64;99837.22;1703041;82;20921;-52
2021/12/30 05:42:46;;;;;;;61.60;27.57;;;;;;;-3.24;77.59;99839.42;1739710;80;21421;-52
2021/12/30 05:45:14;;;;;;;57.63;26.60;;;;;;;-3.26;77.65;99849.05;1739555;80;21126;-52
2021/12/30 05:47:41;;;;;;;61.20;25.20;;;;;;;-3.26;77.72;99846.41;1737632;80;20950;-52
2021/12/30 05:50:09;;;;;;;54.53;24.33;;;;;;;-3.23;77.79;99853.03;1705787;82;21396;-52
2021/12/30 05:52:36;;;;;;;54.20;24.07;;;;;;;-3.21;77.75;99855.22;1740595;80;20954;-52
2021/12/30 05:55:05;;;;;;;59.00;25.07;;;;;;;-3.21;77.74;99861.80;1740047;80;20947;-52
2021/12/30 05:57:31;;;;;;;60.00;27.27;;;;;;;-3.24;77.73;99861.36;1740548;80;22180;-52
2021/12/30 05:59:58;;;;;;;55.87;25.10;;;;;;;-3.24;77.88;99867.06;1703727;82;20919;-53
2021/12/30 06:02:24;;;;;;;59.37;25.47;;;;;;;-3.22;77.93;99863.98;1736894;80;20977;-52
2021/12/30 06:04:50;;;;;;;60.63;27.53;;;;;;;-3.20;77.97;99868.83;1739295;80;20883;-52
2021/12/30 06:07:17;;;;;;;58.93;26.37;;;;;;;-3.19;78.06;99871.91;1736851;80;21117;-52
2021/12/30 06:09:45;;;;;;;65.80;28.30;;;;;;;-3.17;77.97;99882.03;1737173;80;21142;-52
2021/12/30 06:12:12;;;;;;;58.07;24.90;;;;;;;-3.18;77.98;99891.68;1737323;80;21472;-52
2021/12/30 06:14:38;;;;;;;59.03;24.57;;;;;;;-3.19;78.01;99892.55;1701845;82;21041;-52
2021/12/30 06:17:05;;;;;;;62.93;26.30;;;;;;;-3.18;78.10;99893.43;1740692;80;20969;-52
2021/12/30 06:19:31;;;;;;;62.37;27.97;;;;;;;-3.16;78.14;99899.16;1737029;80;21167;-52
2021/12/30 06:21:59;;;;;;;63.07;25.83;;;;;;;-3.17;78.10;99903.98;1703502;82;21061;-52
2021/12/30 06:24:25;;;;;;;60.33;24.60;;;;;;;-3.16;78.05;99914.08;1726167;80;21104;-52
2021/12/30 06:26:52;;;;;;;58.07;28.33;;;;;;;-3.15;78.11;99919.80;1724802;80;21108;-52
2021/12/30 06:29:19;;;;;;;55.13;25.40;;;;;;;-3.16;78.11;99914.97;1726869;80;21061;-52
2021/12/30 06:31:45;;;;;;;61.83;25.80;;;;;;;-3.15;78.16;99909.27;1727576;81;21181;-52
2021/12/30 06:34:11;;;;;;;62.53;26.67;;;;;;;-3.15;78.18;99919.33;1727624;80;21153;-52
2021/12/30 06:36:38;;;;;;;54.77;25.80;;;;;;;-3.13;78.22;99919.35;1730041;80;21027;-52
2021/12/30 06:39:06;;;;;;;62.37;26.40;;;;;;;-3.12;78.20;99924.64;1723780;80;21649;-52
2021/12/30 06:41:32;;;;;;;61.17;26.73;;;;;;;-3.11;78.19;99917.19;1725105;80;21542;-52
2021/12/30 06:43:59;;;;;;;60.50;26.23;;;;;;;-3.10;78.21;99922.91;1727121;80;21394;-52
2021/12/30 06:46:25;;;;;;;58.27;26.07;;;;;;;-3.08;78.21;99922.93;1729519;80;21853;-52
2021/12/30 06:48:52;;;;;;;57.13;24.20;;;;;;;-3.08;78.15;99917.66;1732670;80;21030;-52
2021/12/30 06:51:21;;;;;;;57.87;21.67;;;;;;;-3.07;78.18;99919.00;1724473;80;21081;-52
2021/12/30 06:53:47;;;;;;;54.57;22.83;;;;;;;-3.06;78.13;99912.83;1690730;82;21085;-52
2021/12/30 06:56:14;;;;;;;39.27;18.77;;;;;;;-3.05;78.11;99914.60;1730230;80;21101;-52
2021/12/30 06:58:40;;;;;;;45.70;17.43;;;;;;;-3.03;78.05;99915.05;1723352;80;21120;-52
2021/12/30 07:01:08;;;;;;;34.97;16.57;;;;;;;-3.04;77.95;99915.48;1730232;80;21045;-52
2021/12/30 07:03:34;;;;;;;31.00;14.40;;;;;;;-3.04;77.89;99918.12;1730190;80;21034;-52
2021/12/30 07:06:01;;;;;;;36.37;16.50;;;;;;;-3.05;77.89;99914.60;1730893;80;21734;-52
2021/12/30 07:08:29;;;;;;;31.37;13.97;;;;;;;-3.03;77.83;99920.32;1727884;80;21081;-52
2021/12/30 07:10:57;;;;;;;35.20;17.23;;;;;;;-3.03;77.81;99920.32;1725635;81;21078;-52
2021/12/30 07:13:24;;;;;;;30.30;14.17;;;;;;;-3.04;77.75;99918.12;1727552;80;21062;-52
2021/12/30 07:15:50;;;;;;;28.90;13.60;;;;;;;-3.03;77.72;99920.32;1690889;82;21098;-52
2021/12/30 07:18:16;;;;;;;34.23;14.97;;;;;;;-3.03;77.67;99917.25;1725895;80;21355;-52
2021/12/30 07:20:43;;;;;;;28.90;12.37;;;;;;;-3.02;77.61;99920.34;1726218;80;22058;-52
2021/12/30 07:23:09;;;;;;;20.03;9.97;;;;;;;-3.01;77.54;99919.91;1723374;80;21135;-52
2021/12/30 07:25:35;;;;;;;25.77;10.87;;;;;;;-2.99;77.57;99914.23;1730427;80;21057;-52
2021/12/30 07:28:03;;;;;;;20.43;9.43;;;;;;;-2.98;77.40;99926.09;1731242;80;21417;-52
2021/12/30 07:30:30;;;;;;;19.50;9.50;;;;;;;-2.98;77.28;99922.58;1728540;81;21603;-52
2021/12/30 07:32:57;;;;;;;16.50;8.47;;;;;;;-2.98;77.15;99925.22;1732265;80;21042;-52
2021/12/30 07:35:23;;;;;;;18.60;8.67;;;;;;;-2.98;77.03;99923.47;1735953;80;21124;-52
2021/12/30 07:37:51;;;;;;;20.53;9.03;;;;;;;-2.98;76.97;99922.14;1735891;80;21007;-52
2021/12/30 07:40:17;;;;;;;16.73;8.67;;;;;;;-2.97;76.90;99919.05;1742182;80;21110;-52
2021/12/30 07:42:44;;;;;;;15.33;8.13;;;;;;;-2.97;76.73;99916.41;1721134;80;21037;-52
2021/12/30 07:45:11;;;;;;;19.23;8.10;;;;;;;-2.98;76.74;99926.09;1726028;81;21073;-52
2021/12/30 07:47:39;;;;;;;23.63;8.03;;;;;;;-2.98;76.70;99924.78;1727418;80;21578;-52
2021/12/30 07:50:07;;;;;;;17.17;7.50;;;;;;;-2.95;76.63;99922.59;1726815;81;21373;-52
2021/12/30 07:52:34;;;;;;;16.23;7.17;;;;;;;-2.94;76.59;99920.41;1730494;80;21014;-52
2021/12/30 07:55:01;;;;;;;15.80;8.67;;;;;;;-2.92;76.47;99934.47;1718053;81;21669;-52
2021/12/30 07:57:28;;;;;;;16.33;7.57;;;;;;;-2.93;76.37;99928.75;1727764;80;21515;-52
2021/12/30 07:59:54;;;;;;;16.77;7.10;;;;;;;-2.92;76.30;99941.06;1727077;80;21128;-52
2021/12/30 08:02:20;;;;;;;13.93;6.63;;;;;;;-2.92;76.24;99941.06;1690453;82;21043;-52
2021/12/30 08:04:47;;;;;;;14.93;6.83;;;;;;;-2.91;76.16;99944.14;1733830;80;21062;-52
2021/12/30 08:07:19;;;;;;;14.10;6.80;;;;;;;-2.91;76.09;99948.09;1739320;80;21650;-52
2021/12/30 08:09:41;;;;;;;13.43;6.63;;;;;;;-2.91;76.04;99946.78;1721848;81;21018;-52
2021/12/30 08:12:08;;;;;;;12.60;6.13;;;;;;;-2.92;76.03;99947.64;1730270;80;21087;-52
2021/12/30 08:14:34;;;;;;;10.83;5.90;;;;;;;-2.91;75.98;99942.39;1729377;80;21394;-52
2021/12/30 08:17:01;;;;;;;19.07;7.73;;;;;;;-2.89;75.91;99943.73;1729458;80;20875;-52
2021/12/30 08:19:27;;;;;;;16.00;8.50;;;;;;;-2.89;75.89;99949.00;1728976;80;20926;-52
2021/12/30 08:21:54;;;;;;;15.60;7.17;;;;;;;-2.88;75.82;99937.13;1732389;80;20919;-52
2021/12/30 08:24:21;;;;;;;13.37;6.20;;;;;;;-2.84;75.80;99948.59;1722777;80;21109;-52
2021/12/30 08:26:47;;;;;;;17.13;8.33;;;;;;;-2.81;75.68;99944.25;1721145;81;20915;-52
2021/12/30 08:29:15;;;;;;;17.73;8.70;;;;;;;-2.80;75.58;99934.13;1725245;81;20962;-52
2021/12/30 08:31:42;;;;;;;37.03;21.53;;;;;;;-2.79;75.57;99934.58;1724412;81;20995;-52
2021/12/30 08:34:08;;;;;;;24.77;14.17;;;;;;;-2.78;75.56;99937.66;1722493;81;21038;-52
2021/12/30 08:36:36;;;;;;;14.33;7.70;;;;;;;-2.76;75.42;99931.98;1682226;83;20986;-52
2021/12/30 08:39:03;;;;;;;13.13;6.30;;;;;;;-2.75;75.33;99927.16;1719548;81;20999;-52
2021/12/30 08:41:30;;;;;;;14.47;5.80;;;;;;;-2.74;75.27;99929.36;1724792;81;20867;-52
2021/12/30 08:43:56;;;;;;;11.87;5.37;;;;;;;-2.73;75.26;99930.70;1724557;81;20970;-52
2021/12/30 08:46:22;;;;;;;14.07;6.37;;;;;;;-2.71;75.19;99933.31;1721368;81;20970;-52
2021/12/30 08:48:49;;;;;;;10.27;4.87;;;;;;;-2.69;75.15;99935.53;1724033;81;21145;-52
2021/12/30 08:51:15;;;;;;;16.67;5.80;;;;;;;-2.66;75.13;99939.52;1730246;81;21377;-52
2021/12/30 08:53:42;;;;;;;9.97;5.10;;;;;;;-2.65;75.00;99945.68;1722632;81;21401;-52
2021/12/30 08:56:08;;;;;;;9.37;5.63;;;;;;;-2.63;74.93;99946.11;1721644;81;21548;-52
2021/12/30 08:58:35;;;;;;;7.67;4.80;;;;;;;-2.63;74.85;99944.80;1721576;82;21068;-52
2021/12/30 09:01:02;;;;;;;8.77;4.80;;;;;;;-2.61;74.77;99934.27;1723491;81;21684;-52
2021/12/30 09:03:29;;;;;;;13.60;5.60;;;;;;;-2.62;74.71;99937.34;1724176;81;21330;-51
2021/12/30 09:05:56;;;;;;;11.47;4.70;;;;;;;-2.61;74.71;99938.22;1720619;81;21054;-52
2021/12/30 09:08:22;;;;;;;9.60;5.07;;;;;;;-2.61;74.60;99939.55;1671412;83;21269;-52
2021/12/30 09:10:50;;;;;;;12.20;5.87;;;;;;;-2.60;74.52;99951.42;1721742;81;21462;-52
2021/12/30 09:13:18;;;;;;;8.97;4.40;;;;;;;-2.59;74.39;99943.97;1725750;81;23097;-52
2021/12/30 09:15:45;;;;;;;6.97;4.07;;;;;;;-2.61;74.30;99948.33;1726291;81;21053;-52
2021/12/30 09:18:13;;;;;;;8.53;4.40;;;;;;;-2.62;74.21;99950.52;1730952;81;21062;-52
2021/12/30 09:20:41;;;;;;;11.67;5.07;;;;;;;-2.62;74.18;99949.20;1724779;81;21187;-52
2021/12/30 09:23:09;;;;;;;7.83;3.73;;;;;;;-2.60;74.21;99948.78;1727529;80;21100;-52
2021/12/30 09:25:37;;;;;;;9.43;4.43;;;;;;;-2.59;74.14;99951.88;1732173;80;21103;-52
2021/12/30 09:28:03;;;;;;;10.73;6.53;;;;;;;-2.58;74.06;99946.16;1731357;81;20907;-52
2021/12/30 09:30:30;;;;;;;8.77;4.70;;;;;;;-2.60;73.96;99947.47;1724170;80;21303;-52
2021/12/30 09:32:58;;;;;;;19.83;11.77;;;;;;;-2.58;73.85;99942.21;1725594;80;21332;-52
2021/12/30 09:35:24;;;;;;;15.47;10.20;;;;;;;-2.58;73.76;99939.14;1690668;82;21077;-52
2021/12/30 09:37:51;;;;;;;12.63;7.13;;;;;;;-2.58;73.78;99934.30;1724308;80;21154;-52
2021/12/30 09:40:17;;;;;;;11.43;5.77;;;;;;;-2.58;73.81;99929.03;1722708;80;22475;-52
2021/12/30 09:42:50;;;;;;;11.37;4.67;;;;;;;-2.58;73.77;99922.02;1729232;80;20901;-52
2021/12/30 09:45:17;;;;;;;7.63;4.33;;;;;;;-2.58;73.68;99916.74;1730592;80;20986;-52
2021/12/30 09:47:55;;;;;;;11.27;4.77;;;;;;;-2.59;73.59;99920.68;1733817;80;21056;-52
2021/12/30 09:50:29;;;;;;;10.17;4.87;;;;;;;-2.60;73.47;99920.23;1732678;80;21150;-52
2021/12/30 09:52:56;;;;;;;16.33;6.40;;;;;;;-2.62;73.49;99924.59;1732727;80;20973;-52
2021/12/30 09:55:25;;;;;;;15.10;6.50;;;;;;;-2.63;73.54;99919.76;1728876;80;20915;-52
2021/12/30 09:57:54;;;;;;;15.63;6.77;;;;;;;-2.61;73.48;99910.13;1723709;80;21038;-52
2021/12/30 10:00:22;;;;;;;15.77;7.57;;;;;;;-2.59;73.52;99916.30;1723981;80;20970;-52
2021/12/30 10:02:49;;;;;;;12.53;6.17;;;;;;;-2.55;73.48;99910.16;1728839;80;21079;-52
2021/12/30 10:05:21;;;;;;;11.73;6.70;;;;;;;-2.52;73.37;99914.14;1727666;80;21070;-52
2021/12/30 10:07:47;;;;;;;18.00;9.53;;;;;;;-2.49;73.37;99908.90;1706125;81;21175;-52
2021/12/30 10:10:27;;;;;;;13.17;7.40;;;;;;;-2.46;73.21;99915.92;1727145;80;21135;-52
2021/12/30 10:12:53;;;;;;;11.67;6.47;;;;;;;-2.47;73.21;99911.55;1729930;80;20997;-52
2021/12/30 10:15:24;;;;;;;13.10;7.47;;;;;;;-2.46;73.14;99912.85;1729461;80;21449;-52
2021/12/30 10:17:56;;;;;;;11.37;5.30;;;;;;;-2.46;73.05;99907.58;1729975;80;21045;-52
2021/12/30 10:20:28;;;;;;;14.27;6.40;;;;;;;-2.46;73.00;99906.70;1728829;81;21070;-52
2021/12/30 10:23:12;;;;;;;10.50;5.23;;;;;;;-2.47;72.96;99906.28;1729973;80;20883;-52
2021/12/30 10:25:41;;;;;;;12.93;7.40;;;;;;;-2.46;72.83;99898.78;1728646;80;21115;-52
2021/12/30 10:28:31;;;;;;;10.37;6.33;;;;;;;-2.47;72.82;99901.01;1732226;81;21063;-52
2021/12/30 10:31:09;;;;;;;9.67;5.60;;;;;;;-2.48;72.68;99896.61;1726349;80;21079;-52
2021/12/30 10:33:35;;;;;;;14.43;5.20;;;;;;;-2.49;72.63;99900.99;1729879;80;21200;-52
2021/12/30 10:36:01;;;;;;;9.20;4.57;;;;;;;-2.49;72.52;99896.16;1729871;80;21654;-52
2021/12/30 10:38:29;;;;;;;12.83;4.87;;;;;;;-2.50;72.48;99889.12;1730498;80;21393;-52
2021/12/30 10:41:01;;;;;;;9.20;5.60;;;;;;;-2.51;72.43;99883.39;1730610;80;21018;-52
2021/12/30 10:43:44;;;;;;;12.40;6.20;;;;;;;-2.53;72.41;99886.02;1733173;80;21374;-51
2021/12/30 10:46:18;;;;;;;10.33;5.43;;;;;;;-2.54;72.44;99883.36;1729593;80;21351;-52
2021/12/30 10:48:54;;;;;;;7.73;4.17;;;;;;;-2.53;72.38;99876.79;1727545;80;21073;-52
2021/12/30 10:51:34;;;;;;;8.87;5.47;;;;;;;-2.53;72.26;99864.05;1728695;80;21045;-52
2021/12/30 10:54:28;;;;;;;9.00;5.47;;;;;;;-2.54;72.29;99860.96;1724964;80;21065;-51
2021/12/30 10:57:07;;;;;;;12.73;6.17;;;;;;;-2.53;72.27;99845.16;1726715;80;21075;-51
2021/12/30 10:59:39;;;;;;;9.33;6.10;;;;;;;-2.51;72.38;99848.70;1733410;80;21436;-51
2021/12/30 11:02:18;;;;;;;8.13;4.67;;;;;;;-2.47;72.32;99849.61;1694970;83;20963;-50
2021/12/30 11:04:50;;;;;;;11.10;5.50;;;;;;;-2.46;72.23;99850.91;1726253;80;21098;-50
2021/12/30 11:07:20;;;;;;;9.57;5.10;;;;;;;-2.46;72.13;99849.59;1726864;80;21133;-51
2021/12/30 11:09:50;;;;;;;11.57;5.83;;;;;;;-2.45;72.11;99844.77;1733036;80;20938;-50
2021/12/30 11:12:28;;;;;;;10.73;6.17;;;;;;;-2.44;72.09;99844.33;1731263;80;21038;-51
2021/12/30 11:14:55;;;;;;;10.87;5.63;;;;;;;-2.44;72.02;99845.22;1729218;80;21046;-50
2021/12/30 11:17:29;;;;;;;14.47;8.63;;;;;;;-2.44;72.01;99839.06;1731381;80;20934;-50
2021/12/30 11:19:54;;;;;;;14.77;9.17;;;;;;;-2.44;71.87;99842.58;1734082;80;21792;-52
2021/12/30 11:22:28;;;;;;;13.73;8.47;;;;;;;-2.47;71.86;99843.02;1734870;80;20891;-52
2021/12/30 11:24:59;;;;;;;9.27;5.60;;;;;;;-2.46;71.81;99853.55;1732370;81;20894;-50